sensor_id;sensor_type;location;lat;lon;timestamp;P1;durP1;ratioP1;P2;durP2;ratioP2
1378;SDS011;683;48.738;9.226;2023-08-30T00:00:07;23.30;;;19.50;;
1378;SDS011;683;48.738;9.226;2023-08-30T00:02:36;23.47;;;21.07;;
1378;SDS011;683;48.738;9.226;2023-08-30T00:05:03;22.23;;;19.70;;
1378;SDS011;683;48.738;9.226;2023-08-30T00:07:31;21.43;;;19.20;;
1378;SDS011;683;48.738;9.226;2023-08-30T00:09:59;19.60;;;17.60;;
1378;SDS011;683;48.738;9.226;2023-08-30T00:12:27;24.20;;;18.90;;
1378;SDS011;683;48.738;9.226;2023-08-30T00:14:55;19.70;;;17.60;;
1378;SDS011;683;48.738;9.226;2023-08-30T00:17:22;19.00;;;17.10;;
1378;SDS011;683;48.738;9.226;2023-08-30T00:19:50;18.50;;;16.27;;
1378;SDS011;683;48.738;9.226;2023-08-30T00:22:18;21.13;;;18.97;;
1378;SDS011;683;48.738;9.226;2023-08-30T00:24:47;21.10;;;19.03;;
1378;SDS011;683;48.738;9.226;2023-08-30T00:27:16;17.63;;;15.90;;
1378;SDS011;683;48.738;9.226;2023-08-30T00:29:43;18.97;;;16.97;;
1378;SDS011;683;48.738;9.226;2023-08-30T00:32:10;20.10;;;18.10;;
1378;SDS011;683;48.738;9.226;2023-08-30T00:34:37;21.63;;;16.40;;
1378;SDS011;683;48.738;9.226;2023-08-30T00:37:04;20.87;;;18.73;;
1378;SDS011;683;48.738;9.226;2023-08-30T00:39:37;22.97;;;20.50;;
1378;SDS011;683;48.738;9.226;2023-08-30T00:42:04;23.10;;;20.23;;
1378;SDS011;683;48.738;9.226;2023-08-30T00:44:35;21.67;;;19.37;;
1378;SDS011;683;48.738;9.226;2023-08-30T00:47:02;22.90;;;20.07;;
1378;SDS011;683;48.738;9.226;2023-08-30T00:49:30;21.07;;;18.10;;
1378;SDS011;683;48.738;9.226;2023-08-30T00:51:57;20.10;;;18.03;;
1378;SDS011;683;48.738;9.226;2023-08-30T00:54:28;23.17;;;18.97;;
1378;SDS011;683;48.738;9.226;2023-08-30T00:56:55;27.13;;;20.33;;
1378;SDS011;683;48.738;9.226;2023-08-30T00:59:24;18.43;;;16.53;;
1378;SDS011;683;48.738;9.226;2023-08-30T01:01:54;22.23;;;19.67;;
1378;SDS011;683;48.738;9.226;2023-08-30T01:04:22;20.20;;;18.20;;
1378;SDS011;683;48.738;9.226;2023-08-30T01:06:50;21.80;;;18.83;;
1378;SDS011;683;48.738;9.226;2023-08-30T01:09:17;21.43;;;19.23;;
1378;SDS011;683;48.738;9.226;2023-08-30T01:11:46;22.87;;;20.50;;
1378;SDS011;683;48.738;9.226;2023-08-30T01:14:20;19.53;;;17.53;;
1378;SDS011;683;48.738;9.226;2023-08-30T01:16:51;17.57;;;15.77;;
1378;SDS011;683;48.738;9.226;2023-08-30T01:19:26;22.97;;;19.77;;
1378;SDS011;683;48.738;9.226;2023-08-30T01:22:05;23.67;;;17.20;;
1378;SDS011;683;48.738;9.226;2023-08-30T01:24:40;21.93;;;17.80;;
1378;SDS011;683;48.738;9.226;2023-08-30T01:27:14;19.50;;;17.40;;
1378;SDS011;683;48.738;9.226;2023-08-30T01:29:43;18.40;;;16.30;;
1378;SDS011;683;48.738;9.226;2023-08-30T01:32:12;21.17;;;18.87;;
1378;SDS011;683;48.738;9.226;2023-08-30T01:34:40;23.23;;;17.57;;
1378;SDS011;683;48.738;9.226;2023-08-30T01:37:08;18.03;;;16.33;;
1378;SDS011;683;48.738;9.226;2023-08-30T01:39:36;21.30;;;17.40;;
1378;SDS011;683;48.738;9.226;2023-08-30T01:42:06;21.53;;;18.97;;
1378;SDS011;683;48.738;9.226;2023-08-30T01:44:37;20.03;;;17.30;;
1378;SDS011;683;48.738;9.226;2023-08-30T01:47:07;20.03;;;17.70;;
1378;SDS011;683;48.738;9.226;2023-08-30T01:49:35;25.60;;;20.87;;
1378;SDS011;683;48.738;9.226;2023-08-30T01:52:05;28.03;;;19.50;;
1378;SDS011;683;48.738;9.226;2023-08-30T01:54:33;20.73;;;17.53;;
1378;SDS011;683;48.738;9.226;2023-08-30T01:57:01;21.33;;;19.03;;
1378;SDS011;683;48.738;9.226;2023-08-30T01:59:29;24.20;;;21.60;;
1378;SDS011;683;48.738;9.226;2023-08-30T02:01:57;24.23;;;21.30;;
1378;SDS011;683;48.738;9.226;2023-08-30T02:04:24;22.60;;;20.30;;
1378;SDS011;683;48.738;9.226;2023-08-30T02:06:54;24.07;;;21.27;;
1378;SDS011;683;48.738;9.226;2023-08-30T02:09:28;27.40;;;22.30;;
1378;SDS011;683;48.738;9.226;2023-08-30T02:12:02;29.57;;;21.17;;
1378;SDS011;683;48.738;9.226;2023-08-30T02:14:33;22.80;;;18.83;;
1378;SDS011;683;48.738;9.226;2023-08-30T02:17:04;19.53;;;17.53;;
1378;SDS011;683;48.738;9.226;2023-08-30T02:19:32;19.20;;;15.57;;
1378;SDS011;683;48.738;9.226;2023-08-30T02:22:00;16.97;;;15.17;;
1378;SDS011;683;48.738;9.226;2023-08-30T02:24:28;17.60;;;15.80;;
1378;SDS011;683;48.738;9.226;2023-08-30T02:26:56;16.83;;;15.13;;
1378;SDS011;683;48.738;9.226;2023-08-30T02:29:23;17.93;;;16.13;;
1378;SDS011;683;48.738;9.226;2023-08-30T02:31:50;18.23;;;16.33;;
1378;SDS011;683;48.738;9.226;2023-08-30T02:34:22;17.90;;;16.00;;
1378;SDS011;683;48.738;9.226;2023-08-30T02:36:49;18.80;;;16.50;;
1378;SDS011;683;48.738;9.226;2023-08-30T02:39:16;16.37;;;14.60;;
1378;SDS011;683;48.738;9.226;2023-08-30T02:41:44;18.27;;;16.00;;
1378;SDS011;683;48.738;9.226;2023-08-30T02:44:11;15.77;;;14.20;;
1378;SDS011;683;48.738;9.226;2023-08-30T02:46:41;17.83;;;15.63;;
1378;SDS011;683;48.738;9.226;2023-08-30T02:49:08;17.80;;;15.40;;
1378;SDS011;683;48.738;9.226;2023-08-30T02:51:38;17.60;;;15.80;;
1378;SDS011;683;48.738;9.226;2023-08-30T02:54:05;16.60;;;14.90;;
1378;SDS011;683;48.738;9.226;2023-08-30T02:56:32;17.93;;;16.17;;
1378;SDS011;683;48.738;9.226;2023-08-30T02:59:00;17.47;;;15.20;;
1378;SDS011;683;48.738;9.226;2023-08-30T03:01:27;17.40;;;15.57;;
1378;SDS011;683;48.738;9.226;2023-08-30T03:03:54;15.73;;;14.03;;
1378;SDS011;683;48.738;9.226;2023-08-30T03:06:21;19.37;;;17.27;;
1378;SDS011;683;48.738;9.226;2023-08-30T03:08:50;19.77;;;17.67;;
1378;SDS011;683;48.738;9.226;2023-08-30T03:11:17;18.83;;;16.83;;
1378;SDS011;683;48.738;9.226;2023-08-30T03:13:49;17.47;;;15.73;;
1378;SDS011;683;48.738;9.226;2023-08-30T03:16:16;19.80;;;16.20;;
1378;SDS011;683;48.738;9.226;2023-08-30T03:18:44;20.13;;;16.90;;
1378;SDS011;683;48.738;9.226;2023-08-30T03:21:11;18.20;;;16.30;;
1378;SDS011;683;48.738;9.226;2023-08-30T03:23:38;18.30;;;16.40;;
1378;SDS011;683;48.738;9.226;2023-08-30T03:26:09;19.73;;;16.77;;
1378;SDS011;683;48.738;9.226;2023-08-30T03:28:37;20.67;;;18.57;;
1378;SDS011;683;48.738;9.226;2023-08-30T03:31:12;20.10;;;15.83;;
1378;SDS011;683;48.738;9.226;2023-08-30T03:33:40;19.87;;;16.67;;
1378;SDS011;683;48.738;9.226;2023-08-30T03:36:07;23.90;;;19.00;;
1378;SDS011;683;48.738;9.226;2023-08-30T03:38:36;25.30;;;21.00;;
1378;SDS011;683;48.738;9.226;2023-08-30T03:41:05;22.17;;;19.77;;
1378;SDS011;683;48.738;9.226;2023-08-30T03:43:34;27.07;;;21.23;;
1378;SDS011;683;48.738;9.226;2023-08-30T03:46:01;21.50;;;17.57;;
1378;SDS011;683;48.738;9.226;2023-08-30T03:48:29;24.30;;;19.73;;
1378;SDS011;683;48.738;9.226;2023-08-30T03:50:57;25.13;;;19.70;;
1378;SDS011;683;48.738;9.226;2023-08-30T03:53:26;20.20;;;17.73;;
1378;SDS011;683;48.738;9.226;2023-08-30T03:55:53;22.97;;;18.33;;
1378;SDS011;683;48.738;9.226;2023-08-30T03:58:20;19.13;;;17.13;;
1378;SDS011;683;48.738;9.226;2023-08-30T04:00:50;19.60;;;16.60;;
1378;SDS011;683;48.738;9.226;2023-08-30T04:03:17;20.80;;;18.17;;
1378;SDS011;683;48.738;9.226;2023-08-30T04:05:45;22.77;;;18.93;;
1378;SDS011;683;48.738;9.226;2023-08-30T04:08:12;21.37;;;17.03;;
1378;SDS011;683;48.738;9.226;2023-08-30T04:10:40;19.90;;;17.23;;
1378;SDS011;683;48.738;9.226;2023-08-30T04:13:09;22.90;;;18.70;;
1378;SDS011;683;48.738;9.226;2023-08-30T04:15:36;21.30;;;18.40;;
1378;SDS011;683;48.738;9.226;2023-08-30T04:18:06;20.43;;;17.90;;
1378;SDS011;683;48.738;9.226;2023-08-30T04:20:33;18.63;;;16.63;;
1378;SDS011;683;48.738;9.226;2023-08-30T04:23:01;19.00;;;16.80;;
1378;SDS011;683;48.738;9.226;2023-08-30T04:25:29;19.33;;;16.80;;
1378;SDS011;683;48.738;9.226;2023-08-30T04:27:57;19.00;;;16.67;;
1378;SDS011;683;48.738;9.226;2023-08-30T04:30:25;29.80;;;22.80;;
1378;SDS011;683;48.738;9.226;2023-08-30T04:32:52;23.60;;;19.97;;
1378;SDS011;683;48.738;9.226;2023-08-30T04:35:21;26.40;;;21.40;;
1378;SDS011;683;48.738;9.226;2023-08-30T04:37:48;23.17;;;20.33;;
1378;SDS011;683;48.738;9.226;2023-08-30T04:40:15;22.60;;;18.33;;
1378;SDS011;683;48.738;9.226;2023-08-30T04:42:43;22.93;;;19.33;;
1378;SDS011;683;48.738;9.226;2023-08-30T04:45:10;23.17;;;18.63;;
1378;SDS011;683;48.738;9.226;2023-08-30T04:47:37;22.97;;;18.60;;
1378;SDS011;683;48.738;9.226;2023-08-30T04:50:05;18.67;;;16.67;;
1378;SDS011;683;48.738;9.226;2023-08-30T04:52:34;18.87;;;16.87;;
1378;SDS011;683;48.738;9.226;2023-08-30T04:55:01;21.07;;;18.40;;
1378;SDS011;683;48.738;9.226;2023-08-30T04:57:30;23.87;;;19.37;;
1378;SDS011;683;48.738;9.226;2023-08-30T04:59:57;30.03;;;20.67;;
1378;SDS011;683;48.738;9.226;2023-08-30T05:02:25;22.40;;;19.17;;
1378;SDS011;683;48.738;9.226;2023-08-30T05:05:05;25.90;;;20.00;;
1378;SDS011;683;48.738;9.226;2023-08-30T05:07:32;24.23;;;18.97;;
1378;SDS011;683;48.738;9.226;2023-08-30T05:10:02;25.17;;;18.47;;
1378;SDS011;683;48.738;9.226;2023-08-30T05:12:32;21.83;;;17.70;;
1378;SDS011;683;48.738;9.226;2023-08-30T05:15:00;20.50;;;17.27;;
1378;SDS011;683;48.738;9.226;2023-08-30T05:17:29;21.20;;;16.57;;
1378;SDS011;683;48.738;9.226;2023-08-30T05:19:57;21.10;;;17.23;;
1378;SDS011;683;48.738;9.226;2023-08-30T05:22:24;22.80;;;17.83;;
1378;SDS011;683;48.738;9.226;2023-08-30T05:24:53;21.30;;;17.77;;
1378;SDS011;683;48.738;9.226;2023-08-30T05:27:20;25.43;;;20.80;;
1378;SDS011;683;48.738;9.226;2023-08-30T05:29:47;24.63;;;20.30;;
1378;SDS011;683;48.738;9.226;2023-08-30T05:32:15;27.00;;;20.77;;
1378;SDS011;683;48.738;9.226;2023-08-30T05:35:01;27.17;;;21.20;;
1378;SDS011;683;48.738;9.226;2023-08-30T05:37:48;26.63;;;22.13;;
1378;SDS011;683;48.738;9.226;2023-08-30T05:40:40;24.20;;;20.50;;
1378;SDS011;683;48.738;9.226;2023-08-30T05:43:10;26.90;;;22.23;;
1378;SDS011;683;48.738;9.226;2023-08-30T05:45:37;26.73;;;20.13;;
1378;SDS011;683;48.738;9.226;2023-08-30T05:48:04;23.60;;;19.27;;
1378;SDS011;683;48.738;9.226;2023-08-30T05:50:32;22.90;;;19.77;;
1378;SDS011;683;48.738;9.226;2023-08-30T05:52:59;25.80;;;19.67;;
1378;SDS011;683;48.738;9.226;2023-08-30T05:55:27;29.23;;;21.67;;
1378;SDS011;683;48.738;9.226;2023-08-30T05:57:55;29.83;;;22.67;;
1378;SDS011;683;48.738;9.226;2023-08-30T06:00:23;29.33;;;23.33;;
1378;SDS011;683;48.738;9.226;2023-08-30T06:02:51;27.90;;;22.10;;
1378;SDS011;683;48.738;9.226;2023-08-30T06:05:18;24.23;;;20.93;;
1378;SDS011;683;48.738;9.226;2023-08-30T06:07:45;26.90;;;21.50;;
1378;SDS011;683;48.738;9.226;2023-08-30T06:10:12;25.97;;;22.07;;
1378;SDS011;683;48.738;9.226;2023-08-30T06:12:39;24.63;;;21.27;;
1378;SDS011;683;48.738;9.226;2023-08-30T06:15:08;25.13;;;20.17;;
1378;SDS011;683;48.738;9.226;2023-08-30T06:17:36;24.60;;;18.57;;
1378;SDS011;683;48.738;9.226;2023-08-30T06:20:06;25.43;;;20.03;;
1378;SDS011;683;48.738;9.226;2023-08-30T06:22:35;21.70;;;18.10;;
1378;SDS011;683;48.738;9.226;2023-08-30T06:25:02;23.80;;;19.70;;
1378;SDS011;683;48.738;9.226;2023-08-30T06:27:32;23.60;;;17.93;;
1378;SDS011;683;48.738;9.226;2023-08-30T06:29:59;22.90;;;18.87;;
1378;SDS011;683;48.738;9.226;2023-08-30T06:32:27;21.00;;;18.73;;
1378;SDS011;683;48.738;9.226;2023-08-30T06:34:54;23.00;;;18.30;;
1378;SDS011;683;48.738;9.226;2023-08-30T07:36:25;10.70;;;9.80;;
1378;SDS011;683;48.738;9.226;2023-08-30T07:38:53;11.17;;;10.23;;
1378;SDS011;683;48.738;9.226;2023-08-30T07:41:22;11.47;;;10.47;;
1378;SDS011;683;48.738;9.226;2023-08-30T07:43:49;12.27;;;11.30;;
1378;SDS011;683;48.738;9.226;2023-08-30T07:46:16;10.77;;;9.73;;
1378;SDS011;683;48.738;9.226;2023-08-30T07:48:43;10.53;;;9.70;;
1378;SDS011;683;48.738;9.226;2023-08-30T07:51:10;12.53;;;11.43;;
1378;SDS011;683;48.738;9.226;2023-08-30T07:53:37;11.13;;;10.20;;
1378;SDS011;683;48.738;9.226;2023-08-30T07:56:04;11.00;;;10.10;;
1378;SDS011;683;48.738;9.226;2023-08-30T07:58:34;10.52;;;9.63;;
1378;SDS011;683;48.738;9.226;2023-08-30T08:01:01;9.20;;;8.60;;
1378;SDS011;683;48.738;9.226;2023-08-30T08:03:28;8.60;;;8.00;;
1378;SDS011;683;48.738;9.226;2023-08-30T08:05:57;8.73;;;8.13;;
1378;SDS011;683;48.738;9.226;2023-08-30T08:08:25;12.97;;;10.07;;
1378;SDS011;683;48.738;9.226;2023-08-30T08:10:52;9.30;;;8.60;;
1378;SDS011;683;48.738;9.226;2023-08-30T08:13:19;7.47;;;6.90;;
1378;SDS011;683;48.738;9.226;2023-08-30T08:15:48;9.33;;;8.63;;
1378;SDS011;683;48.738;9.226;2023-08-30T08:18:15;8.70;;;8.10;;
1378;SDS011;683;48.738;9.226;2023-08-30T08:20:42;8.20;;;7.50;;
1378;SDS011;683;48.738;9.226;2023-08-30T08:23:09;7.53;;;7.00;;
1378;SDS011;683;48.738;9.226;2023-08-30T08:25:37;8.10;;;7.50;;
1378;SDS011;683;48.738;9.226;2023-08-30T08:47:44;5.40;;;5.00;;
1378;SDS011;683;48.738;9.226;2023-08-30T08:50:15;5.33;;;4.93;;
1378;SDS011;683;48.738;9.226;2023-08-30T08:52:46;7.90;;;5.60;;
1378;SDS011;683;48.738;9.226;2023-08-30T08:55:17;4.57;;;4.27;;
1378;SDS011;683;48.738;9.226;2023-08-30T08:57:44;6.10;;;5.50;;
1378;SDS011;683;48.738;9.226;2023-08-30T09:00:15;5.27;;;4.97;;
1378;SDS011;683;48.738;9.226;2023-08-30T09:02:42;5.63;;;5.20;;
1378;SDS011;683;48.738;9.226;2023-08-30T09:05:11;5.47;;;5.07;;
1378;SDS011;683;48.738;9.226;2023-08-30T09:07:40;4.80;;;4.50;;
1378;SDS011;683;48.738;9.226;2023-08-30T09:10:08;6.63;;;6.03;;
1378;SDS011;683;48.738;9.226;2023-08-30T09:12:35;4.20;;;3.90;;
1378;SDS011;683;48.738;9.226;2023-08-30T09:15:03;4.68;;;4.38;;
1378;SDS011;683;48.738;9.226;2023-08-30T09:17:37;6.03;;;5.53;;
1378;SDS011;683;48.738;9.226;2023-08-30T09:20:05;5.93;;;4.83;;
1378;SDS011;683;48.738;9.226;2023-08-30T09:22:37;4.03;;;3.73;;
1378;SDS011;683;48.738;9.226;2023-08-30T09:25:07;4.60;;;4.30;;
1378;SDS011;683;48.738;9.226;2023-08-30T09:27:37;4.57;;;4.27;;
1378;SDS011;683;48.738;9.226;2023-08-30T09:30:07;5.40;;;5.00;;
1378;SDS011;683;48.738;9.226;2023-08-30T09:32:39;3.93;;;3.63;;
1378;SDS011;683;48.738;9.226;2023-08-30T09:35:08;4.23;;;3.93;;
1378;SDS011;683;48.738;9.226;2023-08-30T09:37:35;4.53;;;4.23;;
1378;SDS011;683;48.738;9.226;2023-08-30T09:40:04;4.27;;;3.90;;
1378;SDS011;683;48.738;9.226;2023-08-30T09:42:33;3.67;;;3.40;;
1378;SDS011;683;48.738;9.226;2023-08-30T09:45:00;4.13;;;3.80;;
1378;SDS011;683;48.738;9.226;2023-08-30T09:47:28;4.33;;;4.03;;
1378;SDS011;683;48.738;9.226;2023-08-30T09:49:56;4.20;;;3.90;;
1378;SDS011;683;48.738;9.226;2023-08-30T09:52:24;4.60;;;4.30;;
1378;SDS011;683;48.738;9.226;2023-08-30T09:54:54;3.60;;;3.30;;
1378;SDS011;683;48.738;9.226;2023-08-30T09:57:23;4.50;;;3.90;;
1378;SDS011;683;48.738;9.226;2023-08-30T09:59:52;3.83;;;3.60;;
1378;SDS011;683;48.738;9.226;2023-08-30T10:02:19;5.27;;;4.60;;
1378;SDS011;683;48.738;9.226;2023-08-30T10:04:48;3.90;;;3.47;;
1378;SDS011;683;48.738;9.226;2023-08-30T10:07:20;4.97;;;3.87;;
1378;SDS011;683;48.738;9.226;2023-08-30T10:09:47;3.60;;;3.33;;
1378;SDS011;683;48.738;9.226;2023-08-30T10:12:20;4.33;;;3.93;;
1378;SDS011;683;48.738;9.226;2023-08-30T10:14:49;2.80;;;2.60;;
1378;SDS011;683;48.738;9.226;2023-08-30T10:17:17;3.70;;;3.40;;
1378;SDS011;683;48.738;9.226;2023-08-30T10:19:46;3.90;;;3.20;;
1378;SDS011;683;48.738;9.226;2023-08-30T10:22:15;3.50;;;3.23;;
1378;SDS011;683;48.738;9.226;2023-08-30T10:24:44;3.37;;;2.90;;
1378;SDS011;683;48.738;9.226;2023-08-30T10:27:17;2.97;;;2.77;;
1378;SDS011;683;48.738;9.226;2023-08-30T10:29:44;2.80;;;2.60;;
1378;SDS011;683;48.738;9.226;2023-08-30T10:32:18;5.00;;;3.40;;
1378;SDS011;683;48.738;9.226;2023-08-30T10:34:47;3.20;;;2.90;;
1378;SDS011;683;48.738;9.226;2023-08-30T10:37:16;3.20;;;2.93;;
1378;SDS011;683;48.738;9.226;2023-08-30T10:39:48;2.70;;;2.50;;
1378;SDS011;683;48.738;9.226;2023-08-30T10:42:16;3.30;;;2.90;;
1378;SDS011;683;48.738;9.226;2023-08-30T10:44:46;2.40;;;2.30;;
1378;SDS011;683;48.738;9.226;2023-08-30T10:47:19;3.87;;;2.90;;
1378;SDS011;683;48.738;9.226;2023-08-30T10:49:46;2.77;;;2.57;;
1378;SDS011;683;48.738;9.226;2023-08-30T10:52:14;2.87;;;2.67;;
1378;SDS011;683;48.738;9.226;2023-08-30T10:54:41;2.40;;;2.30;;
1378;SDS011;683;48.738;9.226;2023-08-30T10:57:12;2.90;;;2.70;;
1378;SDS011;683;48.738;9.226;2023-08-30T10:59:47;3.43;;;3.13;;
1378;SDS011;683;48.738;9.226;2023-08-30T11:02:31;3.60;;;3.30;;
1378;SDS011;683;48.738;9.226;2023-08-30T11:04:59;2.97;;;2.77;;
1378;SDS011;683;48.738;9.226;2023-08-30T11:07:27;3.50;;;3.00;;
1378;SDS011;683;48.738;9.226;2023-08-30T11:09:55;3.80;;;2.83;;
1378;SDS011;683;48.738;9.226;2023-08-30T11:12:22;2.30;;;2.20;;
1378;SDS011;683;48.738;9.226;2023-08-30T11:14:51;3.17;;;2.80;;
1378;SDS011;683;48.738;9.226;2023-08-30T11:17:19;2.50;;;2.30;;
1378;SDS011;683;48.738;9.226;2023-08-30T11:19:48;3.27;;;3.07;;
1378;SDS011;683;48.738;9.226;2023-08-30T11:22:17;2.90;;;2.60;;
1378;SDS011;683;48.738;9.226;2023-08-30T11:24:46;2.57;;;2.37;;
1378;SDS011;683;48.738;9.226;2023-08-30T11:27:16;3.40;;;3.10;;
1378;SDS011;683;48.738;9.226;2023-08-30T11:29:44;2.70;;;2.50;;
1378;SDS011;683;48.738;9.226;2023-08-30T11:32:11;2.40;;;2.20;;
1378;SDS011;683;48.738;9.226;2023-08-30T11:34:38;4.10;;;2.90;;
1378;SDS011;683;48.738;9.226;2023-08-30T11:37:07;2.50;;;2.30;;
1378;SDS011;683;48.738;9.226;2023-08-30T11:39:34;2.67;;;2.47;;
1378;SDS011;683;48.738;9.226;2023-08-30T11:42:03;2.50;;;2.30;;
1378;SDS011;683;48.738;9.226;2023-08-30T11:44:31;2.80;;;2.60;;
1378;SDS011;683;48.738;9.226;2023-08-30T11:46:58;2.50;;;2.30;;
1378;SDS011;683;48.738;9.226;2023-08-30T11:49:26;2.70;;;2.50;;
1378;SDS011;683;48.738;9.226;2023-08-30T11:51:54;4.70;;;2.23;;
1378;SDS011;683;48.738;9.226;2023-08-30T11:54:25;2.67;;;2.47;;
1378;SDS011;683;48.738;9.226;2023-08-30T11:56:52;2.50;;;2.30;;
1378;SDS011;683;48.738;9.226;2023-08-30T11:59:19;1.80;;;1.70;;
1378;SDS011;683;48.738;9.226;2023-08-30T12:01:47;2.30;;;2.20;;
1378;SDS011;683;48.738;9.226;2023-08-30T12:04:15;2.30;;;2.10;;
1378;SDS011;683;48.738;9.226;2023-08-30T12:06:43;3.00;;;2.80;;
1378;SDS011;683;48.738;9.226;2023-08-30T12:09:17;2.73;;;2.53;;
1378;SDS011;683;48.738;9.226;2023-08-30T12:11:48;3.30;;;2.30;;
1378;SDS011;683;48.738;9.226;2023-08-30T12:14:15;2.10;;;1.97;;
1378;SDS011;683;48.738;9.226;2023-08-30T12:19:11;5.83;;;2.87;;
1378;SDS011;683;48.738;9.226;2023-08-30T12:21:39;5.30;;;3.40;;
1378;SDS011;683;48.738;9.226;2023-08-30T12:24:07;3.93;;;3.63;;
1378;SDS011;683;48.738;9.226;2023-08-30T12:26:35;3.80;;;3.50;;
1378;SDS011;683;48.738;9.226;2023-08-30T12:31:32;4.90;;;4.50;;
1378;SDS011;683;48.738;9.226;2023-08-30T12:46:16;6.10;;;5.70;;
1378;SDS011;683;48.738;9.226;2023-08-30T12:48:44;6.77;;;6.27;;
1378;SDS011;683;48.738;9.226;2023-08-30T12:56:08;5.90;;;5.40;;
1378;SDS011;683;48.738;9.226;2023-08-30T12:58:36;6.77;;;6.27;;
1378;SDS011;683;48.738;9.226;2023-08-30T13:01:03;5.80;;;5.40;;
1378;SDS011;683;48.738;9.226;2023-08-30T13:03:32;6.00;;;5.60;;
1378;SDS011;683;48.738;9.226;2023-08-30T13:05:59;5.93;;;5.50;;
1378;SDS011;683;48.738;9.226;2023-08-30T13:08:29;5.97;;;5.57;;
1378;SDS011;683;48.738;9.226;2023-08-30T13:10:59;5.27;;;4.87;;
1378;SDS011;683;48.738;9.226;2023-08-30T13:13:26;4.60;;;4.30;;
1378;SDS011;683;48.738;9.226;2023-08-30T13:15:53;5.90;;;5.47;;
1378;SDS011;683;48.738;9.226;2023-08-30T13:18:20;5.23;;;4.73;;
1378;SDS011;683;48.738;9.226;2023-08-30T13:20:51;4.93;;;4.63;;
1378;SDS011;683;48.738;9.226;2023-08-30T13:23:20;4.43;;;4.13;;
1378;SDS011;683;48.738;9.226;2023-08-30T13:25:48;6.00;;;5.50;;
1378;SDS011;683;48.738;9.226;2023-08-30T13:28:15;6.87;;;5.97;;
1378;SDS011;683;48.738;9.226;2023-08-30T13:30:45;6.03;;;5.60;;
1378;SDS011;683;48.738;9.226;2023-08-30T13:33:12;4.50;;;4.20;;
1378;SDS011;683;48.738;9.226;2023-08-30T13:35:39;5.20;;;4.80;;
1378;SDS011;683;48.738;9.226;2023-08-30T13:38:10;5.73;;;5.33;;
1378;SDS011;683;48.738;9.226;2023-08-30T13:40:37;4.37;;;4.07;;
1378;SDS011;683;48.738;9.226;2023-08-30T13:43:05;3.77;;;3.57;;
1378;SDS011;683;48.738;9.226;2023-08-30T13:45:33;3.87;;;3.67;;
1378;SDS011;683;48.738;9.226;2023-08-30T13:48:00;3.37;;;3.13;;
1378;SDS011;683;48.738;9.226;2023-08-30T13:50:27;3.77;;;3.50;;
1378;SDS011;683;48.738;9.226;2023-08-30T13:52:55;3.30;;;3.10;;
1378;SDS011;683;48.738;9.226;2023-08-30T13:55:24;2.30;;;2.20;;
1378;SDS011;683;48.738;9.226;2023-08-30T13:57:51;3.07;;;2.80;;
1378;SDS011;683;48.738;9.226;2023-08-30T14:00:19;2.37;;;2.20;;
1378;SDS011;683;48.738;9.226;2023-08-30T14:02:47;2.40;;;2.20;;
1378;SDS011;683;48.738;9.226;2023-08-30T14:05:17;2.47;;;2.27;;
1378;SDS011;683;48.738;9.226;2023-08-30T14:07:44;2.50;;;2.30;;
1378;SDS011;683;48.738;9.226;2023-08-30T14:10:11;1.70;;;1.60;;
1378;SDS011;683;48.738;9.226;2023-08-30T14:12:44;1.40;;;1.30;;
1378;SDS011;683;48.738;9.226;2023-08-30T14:15:12;1.87;;;1.30;;
1378;SDS011;683;48.738;9.226;2023-08-30T14:17:41;1.63;;;1.53;;
1378;SDS011;683;48.738;9.226;2023-08-30T14:20:09;1.60;;;1.50;;
1378;SDS011;683;48.738;9.226;2023-08-30T14:22:37;1.90;;;1.80;;
1378;SDS011;683;48.738;9.226;2023-08-30T14:25:04;1.90;;;1.80;;
1378;SDS011;683;48.738;9.226;2023-08-30T14:27:32;1.80;;;1.53;;
1378;SDS011;683;48.738;9.226;2023-08-30T14:30:04;1.93;;;1.83;;
1378;SDS011;683;48.738;9.226;2023-08-30T14:32:32;2.20;;;1.77;;
1378;SDS011;683;48.738;9.226;2023-08-30T14:34:59;2.30;;;1.47;;
1378;SDS011;683;48.738;9.226;2023-08-30T14:37:26;2.33;;;1.80;;
1378;SDS011;683;48.738;9.226;2023-08-30T14:39:53;1.60;;;1.50;;
1378;SDS011;683;48.738;9.226;2023-08-30T14:42:20;2.33;;;2.13;;
1378;SDS011;683;48.738;9.226;2023-08-30T14:44:48;2.33;;;2.13;;
1378;SDS011;683;48.738;9.226;2023-08-30T14:47:17;2.03;;;1.93;;
1378;SDS011;683;48.738;9.226;2023-08-30T14:49:46;1.50;;;1.40;;
1378;SDS011;683;48.738;9.226;2023-08-30T14:52:13;1.83;;;1.73;;
1378;SDS011;683;48.738;9.226;2023-08-30T14:54:41;2.40;;;1.97;;
1378;SDS011;683;48.738;9.226;2023-08-30T14:57:09;1.90;;;1.80;;
1378;SDS011;683;48.738;9.226;2023-08-30T14:59:36;2.00;;;1.90;;
1378;SDS011;683;48.738;9.226;2023-08-30T15:02:03;2.57;;;2.07;;
1378;SDS011;683;48.738;9.226;2023-08-30T15:04:31;2.40;;;2.20;;
1378;SDS011;683;48.738;9.226;2023-08-30T15:06:59;2.23;;;2.13;;
1378;SDS011;683;48.738;9.226;2023-08-30T15:09:26;2.87;;;2.47;;
1378;SDS011;683;48.738;9.226;2023-08-30T15:11:53;2.67;;;2.47;;
1378;SDS011;683;48.738;9.226;2023-08-30T15:14:20;2.50;;;2.30;;
1378;SDS011;683;48.738;9.226;2023-08-30T15:16:47;3.60;;;2.20;;
1378;SDS011;683;48.738;9.226;2023-08-30T15:19:14;2.10;;;1.90;;
1378;SDS011;683;48.738;9.226;2023-08-30T15:21:42;2.27;;;2.10;;
1378;SDS011;683;48.738;9.226;2023-08-30T15:24:10;2.10;;;1.87;;
1378;SDS011;683;48.738;9.226;2023-08-30T15:26:38;2.70;;;2.50;;
1378;SDS011;683;48.738;9.226;2023-08-30T15:29:05;2.07;;;1.97;;
1378;SDS011;683;48.738;9.226;2023-08-30T15:31:32;2.63;;;2.13;;
1378;SDS011;683;48.738;9.226;2023-08-30T15:33:59;1.90;;;1.80;;
1378;SDS011;683;48.738;9.226;2023-08-30T15:36:27;2.10;;;1.67;;
1378;SDS011;683;48.738;9.226;2023-08-30T15:38:55;1.90;;;1.80;;
1378;SDS011;683;48.738;9.226;2023-08-30T15:41:25;2.43;;;2.07;;
1378;SDS011;683;48.738;9.226;2023-08-30T15:43:52;1.80;;;1.70;;
1378;SDS011;683;48.738;9.226;2023-08-30T15:46:19;2.10;;;2.00;;
1378;SDS011;683;48.738;9.226;2023-08-30T15:48:46;2.20;;;1.70;;
1378;SDS011;683;48.738;9.226;2023-08-30T15:51:13;1.80;;;1.70;;
1378;SDS011;683;48.738;9.226;2023-08-30T15:53:40;1.87;;;1.63;;
1378;SDS011;683;48.738;9.226;2023-08-30T15:56:14;1.70;;;1.60;;
1378;SDS011;683;48.738;9.226;2023-08-30T15:58:42;1.47;;;1.37;;
1378;SDS011;683;48.738;9.226;2023-08-30T16:01:10;3.87;;;1.60;;
1378;SDS011;683;48.738;9.226;2023-08-30T16:03:38;2.63;;;2.43;;
1378;SDS011;683;48.738;9.226;2023-08-30T16:06:05;2.57;;;2.37;;
1378;SDS011;683;48.738;9.226;2023-08-30T16:08:35;3.20;;;1.90;;
1378;SDS011;683;48.738;9.226;2023-08-30T16:11:04;1.50;;;1.40;;
1378;SDS011;683;48.738;9.226;2023-08-30T16:13:32;2.60;;;2.07;;
1378;SDS011;683;48.738;9.226;2023-08-30T16:16:00;1.83;;;1.73;;
1378;SDS011;683;48.738;9.226;2023-08-30T16:18:27;1.73;;;1.63;;
1378;SDS011;683;48.738;9.226;2023-08-30T16:20:56;2.17;;;1.80;;
1378;SDS011;683;48.738;9.226;2023-08-30T16:23:24;1.70;;;1.60;;
1378;SDS011;683;48.738;9.226;2023-08-30T16:25:55;2.07;;;1.97;;
1378;SDS011;683;48.738;9.226;2023-08-30T16:28:23;1.80;;;1.57;;
1378;SDS011;683;48.738;9.226;2023-08-30T16:30:53;2.10;;;2.00;;
1378;SDS011;683;48.738;9.226;2023-08-30T16:33:24;1.80;;;1.70;;
1378;SDS011;683;48.738;9.226;2023-08-30T16:35:51;2.33;;;2.20;;
1378;SDS011;683;48.738;9.226;2023-08-30T16:38:19;2.00;;;1.90;;
1378;SDS011;683;48.738;9.226;2023-08-30T16:40:46;2.43;;;2.20;;
1378;SDS011;683;48.738;9.226;2023-08-30T16:43:13;2.50;;;2.30;;
1378;SDS011;683;48.738;9.226;2023-08-30T16:45:40;3.47;;;2.70;;
1378;SDS011;683;48.738;9.226;2023-08-30T16:48:08;2.70;;;2.50;;
1378;SDS011;683;48.738;9.226;2023-08-30T16:50:37;2.57;;;2.37;;
1378;SDS011;683;48.738;9.226;2023-08-30T16:53:04;2.20;;;2.00;;
1378;SDS011;683;48.738;9.226;2023-08-30T16:55:36;2.57;;;2.37;;
1378;SDS011;683;48.738;9.226;2023-08-30T16:58:03;2.17;;;2.07;;
1378;SDS011;683;48.738;9.226;2023-08-30T17:00:30;1.93;;;1.83;;
1378;SDS011;683;48.738;9.226;2023-08-30T17:02:58;2.30;;;2.10;;
1378;SDS011;683;48.738;9.226;2023-08-30T17:05:26;2.23;;;2.03;;